Decoded Metar for K2G4 (GARRETT CO in MD, USA) (IATA:2G4) | Meteo·Mobile Aviation Weather
aviador You're here:

K2G4 Decoded Metar

GARRETT CO in MD, USA
Report Time2019-07-22 01:35:00
UTC Time2019-07-22 01:45:24
Flight Rules vfr VFR
Wind360° at 03 kt
Visibility9999 m
Phenomena:N/A
Clouds:N/A
Expected CloudBase > 1,200 ft AGL from Temp-Dew spread
CeilingNone
Temp20°C (ISA +11)
Dew Point17°C (83% RH)
QNH1018 hPa
Density Alt4,295 ft
Elevation2,933 ft
Report Wrong Elevation
Raw Report
K2G4 220135Z AUTO 36003KT 10SM CLR 20/17 A3006 RMK AO1=

Extra information for K2G4:More info

Metar Taf Metar & Taf Last 4 Metars F.Rules Stats Wind Profile Meteogram Temp Stats Airport Information Weather charts Add Link Nearby VenuesMetar ALERT Operation Metar Decoded Social comments

AIRNAV info for K2G4